sensor_id;sensor_type;location;lat;lon;timestamp;P1;durP1;ratioP1;P2;durP2;ratioP2
809;SDS011;387;48.772;9.186;2023-09-19T00:02:04;3.03;;;1.40;;
809;SDS011;387;48.772;9.186;2023-09-19T00:04:33;1.87;;;1.37;;
809;SDS011;387;48.772;9.186;2023-09-19T00:06:59;3.30;;;1.40;;
809;SDS011;387;48.772;9.186;2023-09-19T00:09:27;3.10;;;1.27;;
809;SDS011;387;48.772;9.186;2023-09-19T00:11:53;3.40;;;1.40;;
809;SDS011;387;48.772;9.186;2023-09-19T00:14:18;1.70;;;1.10;;
809;SDS011;387;48.772;9.186;2023-09-19T00:16:44;2.47;;;1.30;;
809;SDS011;387;48.772;9.186;2023-09-19T00:19:11;2.50;;;1.60;;
809;SDS011;387;48.772;9.186;2023-09-19T00:21:38;3.70;;;1.20;;
809;SDS011;387;48.772;9.186;2023-09-19T00:24:06;4.30;;;1.40;;
809;SDS011;387;48.772;9.186;2023-09-19T00:26:33;2.40;;;1.40;;
809;SDS011;387;48.772;9.186;2023-09-19T00:28:59;4.97;;;1.37;;
809;SDS011;387;48.772;9.186;2023-09-19T00:31:33;1.53;;;1.20;;
809;SDS011;387;48.772;9.186;2023-09-19T00:33:59;2.37;;;1.00;;
809;SDS011;387;48.772;9.186;2023-09-19T00:36:31;2.30;;;1.27;;
809;SDS011;387;48.772;9.186;2023-09-19T00:38:58;2.10;;;1.10;;
809;SDS011;387;48.772;9.186;2023-09-19T00:41:24;4.67;;;1.50;;
809;SDS011;387;48.772;9.186;2023-09-19T00:43:52;2.10;;;1.20;;
809;SDS011;387;48.772;9.186;2023-09-19T00:46:17;5.10;;;1.20;;
809;SDS011;387;48.772;9.186;2023-09-19T00:48:43;2.30;;;1.50;;
809;SDS011;387;48.772;9.186;2023-09-19T00:51:09;3.90;;;1.50;;
809;SDS011;387;48.772;9.186;2023-09-19T00:53:35;2.73;;;1.20;;
809;SDS011;387;48.772;9.186;2023-09-19T00:56:01;2.30;;;1.13;;
809;SDS011;387;48.772;9.186;2023-09-19T00:58:29;2.17;;;1.00;;
809;SDS011;387;48.772;9.186;2023-09-19T01:00:58;3.20;;;1.03;;
809;SDS011;387;48.772;9.186;2023-09-19T01:03:24;1.70;;;1.23;;
809;SDS011;387;48.772;9.186;2023-09-19T01:05:49;2.70;;;1.23;;
809;SDS011;387;48.772;9.186;2023-09-19T01:08:15;2.10;;;1.40;;
809;SDS011;387;48.772;9.186;2023-09-19T01:10:55;2.90;;;1.67;;
809;SDS011;387;48.772;9.186;2023-09-19T01:14:02;3.43;;;1.57;;
809;SDS011;387;48.772;9.186;2023-09-19T01:16:42;2.20;;;1.27;;
809;SDS011;387;48.772;9.186;2023-09-19T01:19:31;2.67;;;1.40;;
809;SDS011;387;48.772;9.186;2023-09-19T01:30:32;2.30;;;1.20;;
809;SDS011;387;48.772;9.186;2023-09-19T01:33:04;1.63;;;1.07;;
809;SDS011;387;48.772;9.186;2023-09-19T01:35:31;3.20;;;1.30;;
809;SDS011;387;48.772;9.186;2023-09-19T01:37:59;2.87;;;1.33;;
809;SDS011;387;48.772;9.186;2023-09-19T01:40:24;2.03;;;1.30;;
809;SDS011;387;48.772;9.186;2023-09-19T01:51:09;2.47;;;1.50;;
809;SDS011;387;48.772;9.186;2023-09-19T01:53:38;3.30;;;1.17;;
809;SDS011;387;48.772;9.186;2023-09-19T01:56:23;2.50;;;1.30;;
809;SDS011;387;48.772;9.186;2023-09-19T01:59:02;2.00;;;1.13;;
809;SDS011;387;48.772;9.186;2023-09-19T02:01:32;1.50;;;0.80;;
809;SDS011;387;48.772;9.186;2023-09-19T02:04:00;1.80;;;1.00;;
809;SDS011;387;48.772;9.186;2023-09-19T02:06:26;3.00;;;1.30;;
809;SDS011;387;48.772;9.186;2023-09-19T02:08:53;1.20;;;0.83;;
809;SDS011;387;48.772;9.186;2023-09-19T02:11:19;2.23;;;1.00;;
809;SDS011;387;48.772;9.186;2023-09-19T02:13:45;2.93;;;1.33;;
809;SDS011;387;48.772;9.186;2023-09-19T02:16:11;2.40;;;1.07;;
809;SDS011;387;48.772;9.186;2023-09-19T02:18:37;1.87;;;1.07;;
809;SDS011;387;48.772;9.186;2023-09-19T02:21:04;3.07;;;1.10;;
809;SDS011;387;48.772;9.186;2023-09-19T02:23:31;2.80;;;1.00;;
809;SDS011;387;48.772;9.186;2023-09-19T02:25:58;3.23;;;1.47;;
809;SDS011;387;48.772;9.186;2023-09-19T02:28:25;1.40;;;0.90;;
809;SDS011;387;48.772;9.186;2023-09-19T02:30:55;1.70;;;0.97;;
809;SDS011;387;48.772;9.186;2023-09-19T02:33:21;1.70;;;1.17;;
809;SDS011;387;48.772;9.186;2023-09-19T02:35:47;2.00;;;0.93;;
809;SDS011;387;48.772;9.186;2023-09-19T02:38:13;3.20;;;1.10;;
809;SDS011;387;48.772;9.186;2023-09-19T02:40:39;2.60;;;1.43;;
809;SDS011;387;48.772;9.186;2023-09-19T02:43:05;1.93;;;1.00;;
809;SDS011;387;48.772;9.186;2023-09-19T02:45:32;3.13;;;1.20;;
809;SDS011;387;48.772;9.186;2023-09-19T02:47:57;1.50;;;0.90;;
809;SDS011;387;48.772;9.186;2023-09-19T02:50:23;1.57;;;1.00;;
809;SDS011;387;48.772;9.186;2023-09-19T02:52:49;2.20;;;1.27;;
809;SDS011;387;48.772;9.186;2023-09-19T02:55:17;2.50;;;1.30;;
809;SDS011;387;48.772;9.186;2023-09-19T02:57:50;1.53;;;1.00;;
809;SDS011;387;48.772;9.186;2023-09-19T03:00:17;1.80;;;1.10;;
809;SDS011;387;48.772;9.186;2023-09-19T03:02:50;4.00;;;1.30;;
809;SDS011;387;48.772;9.186;2023-09-19T03:05:18;1.93;;;1.07;;
809;SDS011;387;48.772;9.186;2023-09-19T03:07:46;4.13;;;1.30;;
809;SDS011;387;48.772;9.186;2023-09-19T03:10:15;3.27;;;1.37;;
809;SDS011;387;48.772;9.186;2023-09-19T03:12:42;2.93;;;1.20;;
809;SDS011;387;48.772;9.186;2023-09-19T03:15:08;3.00;;;1.30;;
809;SDS011;387;48.772;9.186;2023-09-19T03:17:34;2.67;;;1.70;;
809;SDS011;387;48.772;9.186;2023-09-19T03:20:00;2.30;;;1.40;;
809;SDS011;387;48.772;9.186;2023-09-19T03:22:27;4.93;;;1.47;;
809;SDS011;387;48.772;9.186;2023-09-19T03:24:53;1.77;;;0.93;;
809;SDS011;387;48.772;9.186;2023-09-19T03:27:19;2.67;;;1.13;;
809;SDS011;387;48.772;9.186;2023-09-19T03:29:45;2.90;;;1.20;;
809;SDS011;387;48.772;9.186;2023-09-19T03:32:11;2.87;;;1.60;;
809;SDS011;387;48.772;9.186;2023-09-19T03:34:37;5.77;;;1.40;;
809;SDS011;387;48.772;9.186;2023-09-19T03:37:07;2.40;;;1.40;;
809;SDS011;387;48.772;9.186;2023-09-19T03:39:36;2.97;;;1.30;;
809;SDS011;387;48.772;9.186;2023-09-19T03:42:02;2.83;;;1.37;;
809;SDS011;387;48.772;9.186;2023-09-19T03:44:29;2.27;;;1.60;;
809;SDS011;387;48.772;9.186;2023-09-19T03:46:55;1.60;;;1.23;;
809;SDS011;387;48.772;9.186;2023-09-19T03:49:22;2.60;;;1.33;;
809;SDS011;387;48.772;9.186;2023-09-19T03:51:47;4.07;;;1.30;;
809;SDS011;387;48.772;9.186;2023-09-19T03:54:13;2.97;;;1.40;;
809;SDS011;387;48.772;9.186;2023-09-19T03:56:38;2.47;;;1.33;;
809;SDS011;387;48.772;9.186;2023-09-19T03:59:04;2.80;;;1.30;;
809;SDS011;387;48.772;9.186;2023-09-19T04:01:30;2.90;;;1.60;;
809;SDS011;387;48.772;9.186;2023-09-19T04:03:57;3.07;;;1.37;;
809;SDS011;387;48.772;9.186;2023-09-19T04:06:23;3.47;;;1.40;;
809;SDS011;387;48.772;9.186;2023-09-19T04:08:49;2.20;;;1.30;;
809;SDS011;387;48.772;9.186;2023-09-19T04:11:14;3.10;;;1.40;;
809;SDS011;387;48.772;9.186;2023-09-19T04:13:40;3.57;;;1.50;;
809;SDS011;387;48.772;9.186;2023-09-19T04:16:06;2.00;;;1.30;;
809;SDS011;387;48.772;9.186;2023-09-19T04:18:35;3.50;;;1.70;;
809;SDS011;387;48.772;9.186;2023-09-19T04:21:03;2.80;;;1.33;;
809;SDS011;387;48.772;9.186;2023-09-19T04:23:30;2.37;;;1.63;;
809;SDS011;387;48.772;9.186;2023-09-19T04:25:57;1.90;;;1.43;;
809;SDS011;387;48.772;9.186;2023-09-19T04:28:23;5.57;;;1.90;;
809;SDS011;387;48.772;9.186;2023-09-19T04:30:49;2.77;;;1.50;;
809;SDS011;387;48.772;9.186;2023-09-19T04:33:15;3.20;;;1.67;;
809;SDS011;387;48.772;9.186;2023-09-19T04:35:40;3.43;;;1.60;;
809;SDS011;387;48.772;9.186;2023-09-19T04:38:07;2.77;;;1.60;;
809;SDS011;387;48.772;9.186;2023-09-19T04:40:33;2.90;;;1.27;;
809;SDS011;387;48.772;9.186;2023-09-19T04:42:59;4.17;;;1.80;;
809;SDS011;387;48.772;9.186;2023-09-19T04:45:26;3.37;;;1.40;;
809;SDS011;387;48.772;9.186;2023-09-19T04:47:52;1.60;;;1.30;;
809;SDS011;387;48.772;9.186;2023-09-19T04:50:18;2.80;;;1.40;;
809;SDS011;387;48.772;9.186;2023-09-19T04:52:44;3.60;;;1.30;;
809;SDS011;387;48.772;9.186;2023-09-19T04:55:13;4.70;;;1.77;;
809;SDS011;387;48.772;9.186;2023-09-19T04:57:45;4.17;;;2.20;;
809;SDS011;387;48.772;9.186;2023-09-19T05:00:16;2.23;;;1.60;;
809;SDS011;387;48.772;9.186;2023-09-19T05:02:43;3.27;;;1.43;;
809;SDS011;387;48.772;9.186;2023-09-19T05:05:09;3.00;;;1.90;;
809;SDS011;387;48.772;9.186;2023-09-19T05:07:36;3.27;;;1.80;;
809;SDS011;387;48.772;9.186;2023-09-19T05:10:02;3.13;;;1.90;;
809;SDS011;387;48.772;9.186;2023-09-19T05:12:32;2.90;;;1.67;;
809;SDS011;387;48.772;9.186;2023-09-19T05:14:59;3.43;;;1.90;;
809;SDS011;387;48.772;9.186;2023-09-19T05:17:26;4.30;;;1.77;;
809;SDS011;387;48.772;9.186;2023-09-19T05:19:52;5.70;;;2.20;;
809;SDS011;387;48.772;9.186;2023-09-19T05:22:17;2.37;;;1.70;;
809;SDS011;387;48.772;9.186;2023-09-19T05:24:43;4.73;;;2.23;;
809;SDS011;387;48.772;9.186;2023-09-19T05:27:13;3.83;;;1.97;;
809;SDS011;387;48.772;9.186;2023-09-19T05:29:45;2.50;;;1.53;;
809;SDS011;387;48.772;9.186;2023-09-19T05:32:11;2.80;;;1.90;;
809;SDS011;387;48.772;9.186;2023-09-19T05:34:37;3.33;;;2.10;;
809;SDS011;387;48.772;9.186;2023-09-19T05:37:05;3.20;;;2.10;;
809;SDS011;387;48.772;9.186;2023-09-19T05:39:32;4.17;;;1.70;;
809;SDS011;387;48.772;9.186;2023-09-19T05:41:58;6.40;;;2.33;;
809;SDS011;387;48.772;9.186;2023-09-19T05:44:25;2.33;;;1.60;;
809;SDS011;387;48.772;9.186;2023-09-19T05:46:50;4.37;;;2.30;;
809;SDS011;387;48.772;9.186;2023-09-19T05:49:16;2.47;;;1.70;;
809;SDS011;387;48.772;9.186;2023-09-19T05:51:42;2.50;;;1.60;;
809;SDS011;387;48.772;9.186;2023-09-19T05:54:08;3.80;;;2.30;;
809;SDS011;387;48.772;9.186;2023-09-19T05:56:34;5.13;;;2.37;;
809;SDS011;387;48.772;9.186;2023-09-19T05:58:59;3.70;;;1.80;;
809;SDS011;387;48.772;9.186;2023-09-19T06:01:25;4.10;;;2.30;;
809;SDS011;387;48.772;9.186;2023-09-19T06:03:52;3.50;;;1.57;;
809;SDS011;387;48.772;9.186;2023-09-19T06:06:18;2.77;;;1.93;;
809;SDS011;387;48.772;9.186;2023-09-19T06:08:44;5.13;;;1.83;;
809;SDS011;387;48.772;9.186;2023-09-19T06:11:09;4.60;;;1.90;;
809;SDS011;387;48.772;9.186;2023-09-19T06:13:35;3.63;;;2.00;;
809;SDS011;387;48.772;9.186;2023-09-19T06:16:04;2.83;;;1.83;;
809;SDS011;387;48.772;9.186;2023-09-19T06:18:30;3.40;;;1.70;;
809;SDS011;387;48.772;9.186;2023-09-19T06:20:58;5.27;;;2.03;;
809;SDS011;387;48.772;9.186;2023-09-19T06:23:24;3.63;;;2.00;;
809;SDS011;387;48.772;9.186;2023-09-19T06:25:51;4.00;;;2.27;;
809;SDS011;387;48.772;9.186;2023-09-19T06:28:19;4.27;;;2.23;;
809;SDS011;387;48.772;9.186;2023-09-19T06:30:49;2.77;;;2.07;;
809;SDS011;387;48.772;9.186;2023-09-19T06:33:15;6.60;;;3.50;;
809;SDS011;387;48.772;9.186;2023-09-19T06:35:42;3.53;;;2.20;;
809;SDS011;387;48.772;9.186;2023-09-19T06:38:09;5.30;;;2.00;;
809;SDS011;387;48.772;9.186;2023-09-19T06:40:38;3.10;;;2.00;;
809;SDS011;387;48.772;9.186;2023-09-19T06:43:04;3.47;;;2.17;;
809;SDS011;387;48.772;9.186;2023-09-19T06:45:30;3.23;;;2.20;;
809;SDS011;387;48.772;9.186;2023-09-19T06:47:57;4.00;;;2.37;;
809;SDS011;387;48.772;9.186;2023-09-19T06:50:25;5.63;;;1.83;;
809;SDS011;387;48.772;9.186;2023-09-19T06:52:51;5.50;;;2.67;;
809;SDS011;387;48.772;9.186;2023-09-19T06:55:19;3.77;;;2.20;;
809;SDS011;387;48.772;9.186;2023-09-19T06:57:48;5.03;;;2.50;;
809;SDS011;387;48.772;9.186;2023-09-19T07:00:14;3.20;;;2.10;;
809;SDS011;387;48.772;9.186;2023-09-19T07:02:43;3.40;;;2.00;;
809;SDS011;387;48.772;9.186;2023-09-19T07:05:22;5.10;;;2.37;;
809;SDS011;387;48.772;9.186;2023-09-19T07:07:48;3.23;;;2.20;;
809;SDS011;387;48.772;9.186;2023-09-19T07:10:13;5.47;;;2.20;;
809;SDS011;387;48.772;9.186;2023-09-19T07:12:39;4.93;;;2.30;;
809;SDS011;387;48.772;9.186;2023-09-19T07:15:06;5.60;;;2.60;;
809;SDS011;387;48.772;9.186;2023-09-19T07:17:32;3.07;;;1.80;;
809;SDS011;387;48.772;9.186;2023-09-19T07:19:58;6.20;;;1.90;;
809;SDS011;387;48.772;9.186;2023-09-19T07:22:24;6.33;;;2.30;;
809;SDS011;387;48.772;9.186;2023-09-19T07:24:51;8.43;;;2.20;;
809;SDS011;387;48.772;9.186;2023-09-19T07:27:17;4.43;;;2.20;;
809;SDS011;387;48.772;9.186;2023-09-19T07:29:43;4.50;;;2.10;;
809;SDS011;387;48.772;9.186;2023-09-19T07:32:09;5.80;;;2.00;;
809;SDS011;387;48.772;9.186;2023-09-19T07:34:35;2.60;;;1.80;;
809;SDS011;387;48.772;9.186;2023-09-19T07:37:01;3.57;;;2.43;;
809;SDS011;387;48.772;9.186;2023-09-19T07:39:27;6.40;;;2.40;;
809;SDS011;387;48.772;9.186;2023-09-19T07:41:53;3.63;;;2.10;;
809;SDS011;387;48.772;9.186;2023-09-19T07:44:19;4.60;;;2.50;;
809;SDS011;387;48.772;9.186;2023-09-19T07:46:45;3.40;;;1.87;;
809;SDS011;387;48.772;9.186;2023-09-19T07:49:10;5.80;;;2.40;;
809;SDS011;387;48.772;9.186;2023-09-19T07:51:36;2.73;;;1.90;;
809;SDS011;387;48.772;9.186;2023-09-19T07:54:02;4.10;;;2.43;;
809;SDS011;387;48.772;9.186;2023-09-19T07:56:27;5.33;;;2.13;;
809;SDS011;387;48.772;9.186;2023-09-19T07:58:53;3.47;;;2.30;;
809;SDS011;387;48.772;9.186;2023-09-19T08:01:19;3.43;;;2.03;;
809;SDS011;387;48.772;9.186;2023-09-19T08:03:44;4.27;;;2.60;;
809;SDS011;387;48.772;9.186;2023-09-19T08:06:10;5.07;;;2.43;;
809;SDS011;387;48.772;9.186;2023-09-19T08:08:36;3.40;;;2.50;;
809;SDS011;387;48.772;9.186;2023-09-19T08:11:02;3.77;;;2.67;;
809;SDS011;387;48.772;9.186;2023-09-19T08:13:36;2.83;;;2.07;;
809;SDS011;387;48.772;9.186;2023-09-19T08:16:06;4.00;;;2.20;;
809;SDS011;387;48.772;9.186;2023-09-19T08:18:31;5.03;;;2.20;;
809;SDS011;387;48.772;9.186;2023-09-19T08:20:58;8.03;;;2.20;;
809;SDS011;387;48.772;9.186;2023-09-19T08:23:25;1.90;;;1.50;;
809;SDS011;387;48.772;9.186;2023-09-19T08:25:55;3.27;;;1.73;;
809;SDS011;387;48.772;9.186;2023-09-19T08:28:21;3.43;;;2.03;;
809;SDS011;387;48.772;9.186;2023-09-19T08:30:49;2.80;;;1.90;;
809;SDS011;387;48.772;9.186;2023-09-19T08:33:15;6.60;;;2.23;;
809;SDS011;387;48.772;9.186;2023-09-19T08:35:41;2.83;;;1.83;;
809;SDS011;387;48.772;9.186;2023-09-19T08:38:07;2.53;;;1.60;;
809;SDS011;387;48.772;9.186;2023-09-19T08:40:36;3.70;;;1.83;;
809;SDS011;387;48.772;9.186;2023-09-19T08:43:04;2.03;;;1.60;;
809;SDS011;387;48.772;9.186;2023-09-19T08:45:30;2.97;;;1.80;;
809;SDS011;387;48.772;9.186;2023-09-19T08:50:46;3.53;;;1.93;;
809;SDS011;387;48.772;9.186;2023-09-19T08:53:15;2.47;;;1.50;;
809;SDS011;387;48.772;9.186;2023-09-19T08:55:47;3.40;;;1.73;;
809;SDS011;387;48.772;9.186;2023-09-19T08:58:16;3.13;;;2.10;;
809;SDS011;387;48.772;9.186;2023-09-19T09:00:44;5.27;;;2.13;;
809;SDS011;387;48.772;9.186;2023-09-19T09:03:14;4.20;;;1.70;;
809;SDS011;387;48.772;9.186;2023-09-19T09:05:44;2.07;;;1.70;;
809;SDS011;387;48.772;9.186;2023-09-19T09:08:11;5.53;;;1.70;;
809;SDS011;387;48.772;9.186;2023-09-19T09:10:38;3.33;;;1.83;;
809;SDS011;387;48.772;9.186;2023-09-19T09:13:05;1.83;;;1.30;;
809;SDS011;387;48.772;9.186;2023-09-19T09:15:31;2.30;;;1.70;;
809;SDS011;387;48.772;9.186;2023-09-19T09:18:00;3.40;;;1.70;;
809;SDS011;387;48.772;9.186;2023-09-19T09:20:29;3.07;;;1.63;;
809;SDS011;387;48.772;9.186;2023-09-19T09:22:56;2.73;;;1.83;;
809;SDS011;387;48.772;9.186;2023-09-19T09:28:19;5.07;;;2.00;;
809;SDS011;387;48.772;9.186;2023-09-19T09:30:48;3.03;;;1.60;;
809;SDS011;387;48.772;9.186;2023-09-19T09:33:15;3.30;;;1.73;;
809;SDS011;387;48.772;9.186;2023-09-19T09:35:54;4.17;;;1.67;;
809;SDS011;387;48.772;9.186;2023-09-19T09:38:29;3.57;;;1.90;;
809;SDS011;387;48.772;9.186;2023-09-19T09:41:08;2.70;;;1.33;;
809;SDS011;387;48.772;9.186;2023-09-19T09:43:38;5.83;;;1.93;;
809;SDS011;387;48.772;9.186;2023-09-19T09:46:13;2.87;;;2.00;;
809;SDS011;387;48.772;9.186;2023-09-19T09:48:45;3.87;;;2.40;;
809;SDS011;387;48.772;9.186;2023-09-19T09:51:31;3.30;;;1.87;;
809;SDS011;387;48.772;9.186;2023-09-19T09:56:59;3.60;;;1.90;;
809;SDS011;387;48.772;9.186;2023-09-19T09:59:51;2.90;;;1.70;;
809;SDS011;387;48.772;9.186;2023-09-19T10:02:25;3.67;;;1.90;;
809;SDS011;387;48.772;9.186;2023-09-19T10:04:58;2.97;;;1.60;;
809;SDS011;387;48.772;9.186;2023-09-19T10:07:32;5.33;;;1.83;;
809;SDS011;387;48.772;9.186;2023-09-19T10:10:01;6.30;;;2.30;;
809;SDS011;387;48.772;9.186;2023-09-19T10:12:47;3.30;;;1.80;;
809;SDS011;387;48.772;9.186;2023-09-19T10:15:14;3.90;;;2.13;;
809;SDS011;387;48.772;9.186;2023-09-19T10:17:45;2.10;;;1.70;;
809;SDS011;387;48.772;9.186;2023-09-19T10:20:15;3.33;;;2.07;;
809;SDS011;387;48.772;9.186;2023-09-19T10:22:57;4.10;;;1.40;;
809;SDS011;387;48.772;9.186;2023-09-19T10:25:27;4.30;;;1.80;;
809;SDS011;387;48.772;9.186;2023-09-19T10:27:54;2.53;;;1.73;;
809;SDS011;387;48.772;9.186;2023-09-19T10:30:20;2.50;;;1.77;;
809;SDS011;387;48.772;9.186;2023-09-19T10:32:47;5.00;;;1.97;;
809;SDS011;387;48.772;9.186;2023-09-19T10:35:21;3.43;;;1.77;;
809;SDS011;387;48.772;9.186;2023-09-19T10:37:49;5.00;;;2.10;;
809;SDS011;387;48.772;9.186;2023-09-19T10:40:16;2.83;;;1.93;;
809;SDS011;387;48.772;9.186;2023-09-19T10:42:45;4.57;;;2.40;;
809;SDS011;387;48.772;9.186;2023-09-19T10:45:13;3.37;;;2.40;;
809;SDS011;387;48.772;9.186;2023-09-19T10:47:45;2.37;;;1.73;;
809;SDS011;387;48.772;9.186;2023-09-19T10:50:19;3.53;;;1.93;;
809;SDS011;387;48.772;9.186;2023-09-19T10:52:46;3.73;;;1.70;;
809;SDS011;387;48.772;9.186;2023-09-19T10:55:17;2.90;;;1.80;;
809;SDS011;387;48.772;9.186;2023-09-19T10:57:45;2.57;;;1.70;;
809;SDS011;387;48.772;9.186;2023-09-19T11:00:12;2.83;;;1.67;;
809;SDS011;387;48.772;9.186;2023-09-19T11:05:43;4.37;;;1.83;;
809;SDS011;387;48.772;9.186;2023-09-19T11:08:31;2.40;;;1.37;;
809;SDS011;387;48.772;9.186;2023-09-19T11:14:17;2.27;;;1.60;;
809;SDS011;387;48.772;9.186;2023-09-19T11:30:32;3.20;;;1.90;;
809;SDS011;387;48.772;9.186;2023-09-19T11:43:49;3.20;;;1.50;;
809;SDS011;387;48.772;9.186;2023-09-19T11:46:20;2.70;;;1.50;;
809;SDS011;387;48.772;9.186;2023-09-19T11:48:49;4.30;;;1.90;;
809;SDS011;387;48.772;9.186;2023-09-19T11:51:20;1.70;;;1.20;;
809;SDS011;387;48.772;9.186;2023-09-19T11:53:48;2.87;;;1.70;;
809;SDS011;387;48.772;9.186;2023-09-19T11:56:20;3.30;;;1.73;;
809;SDS011;387;48.772;9.186;2023-09-19T11:58:49;8.10;;;1.70;;
809;SDS011;387;48.772;9.186;2023-09-19T12:01:31;2.13;;;1.40;;
809;SDS011;387;48.772;9.186;2023-09-19T12:03:59;3.40;;;1.60;;
809;SDS011;387;48.772;9.186;2023-09-19T12:06:27;2.67;;;1.30;;
809;SDS011;387;48.772;9.186;2023-09-19T12:08:54;3.23;;;1.80;;
809;SDS011;387;48.772;9.186;2023-09-19T12:11:22;2.57;;;1.60;;
809;SDS011;387;48.772;9.186;2023-09-19T12:13:49;2.63;;;1.33;;
809;SDS011;387;48.772;9.186;2023-09-19T12:16:19;4.77;;;1.90;;
809;SDS011;387;48.772;9.186;2023-09-19T12:18:48;3.03;;;2.07;;
809;SDS011;387;48.772;9.186;2023-09-19T12:21:24;3.57;;;1.97;;
809;SDS011;387;48.772;9.186;2023-09-19T12:26:30;2.47;;;1.53;;
809;SDS011;387;48.772;9.186;2023-09-19T12:29:13;3.47;;;1.40;;
809;SDS011;387;48.772;9.186;2023-09-19T12:34:27;2.70;;;1.50;;
809;SDS011;387;48.772;9.186;2023-09-19T12:39:44;1.80;;;1.20;;
809;SDS011;387;48.772;9.186;2023-09-19T12:42:20;3.90;;;1.63;;
809;SDS011;387;48.772;9.186;2023-09-19T12:44:51;2.93;;;1.70;;
809;SDS011;387;48.772;9.186;2023-09-19T12:47:25;3.07;;;1.40;;
809;SDS011;387;48.772;9.186;2023-09-19T12:52:35;1.87;;;1.60;;
809;SDS011;387;48.772;9.186;2023-09-19T12:55:30;3.10;;;1.50;;
809;SDS011;387;48.772;9.186;2023-09-19T13:00:35;4.30;;;1.67;;
809;SDS011;387;48.772;9.186;2023-09-19T13:03:13;2.77;;;1.73;;
809;SDS011;387;48.772;9.186;2023-09-19T13:05:50;3.70;;;1.93;;
809;SDS011;387;48.772;9.186;2023-09-19T13:08:30;3.17;;;1.73;;
809;SDS011;387;48.772;9.186;2023-09-19T13:13:46;3.80;;;1.60;;
809;SDS011;387;48.772;9.186;2023-09-19T13:16:52;2.00;;;1.40;;
809;SDS011;387;48.772;9.186;2023-09-19T13:22:02;2.83;;;1.40;;
809;SDS011;387;48.772;9.186;2023-09-19T13:24:28;3.60;;;1.50;;
809;SDS011;387;48.772;9.186;2023-09-19T13:26:55;2.73;;;1.73;;
809;SDS011;387;48.772;9.186;2023-09-19T13:29:22;4.70;;;1.83;;
809;SDS011;387;48.772;9.186;2023-09-19T13:34:14;4.70;;;1.80;;
809;SDS011;387;48.772;9.186;2023-09-19T13:36:43;3.60;;;1.70;;
809;SDS011;387;48.772;9.186;2023-09-19T13:39:09;3.40;;;1.90;;
809;SDS011;387;48.772;9.186;2023-09-19T13:41:38;3.63;;;1.60;;
809;SDS011;387;48.772;9.186;2023-09-19T13:44:04;2.33;;;1.57;;
809;SDS011;387;48.772;9.186;2023-09-19T13:46:30;6.87;;;1.87;;
809;SDS011;387;48.772;9.186;2023-09-19T13:49:00;3.20;;;1.80;;
809;SDS011;387;48.772;9.186;2023-09-19T13:51:28;2.97;;;1.40;;
809;SDS011;387;48.772;9.186;2023-09-19T13:53:55;3.10;;;1.57;;
809;SDS011;387;48.772;9.186;2023-09-19T13:56:20;2.07;;;1.37;;
809;SDS011;387;48.772;9.186;2023-09-19T13:58:47;3.33;;;1.70;;
809;SDS011;387;48.772;9.186;2023-09-19T14:01:12;3.53;;;1.67;;
809;SDS011;387;48.772;9.186;2023-09-19T14:03:38;2.70;;;1.60;;
809;SDS011;387;48.772;9.186;2023-09-19T14:06:05;4.53;;;1.60;;
809;SDS011;387;48.772;9.186;2023-09-19T14:08:30;3.40;;;1.80;;
809;SDS011;387;48.772;9.186;2023-09-19T14:10:58;2.43;;;1.87;;
809;SDS011;387;48.772;9.186;2023-09-19T14:13:24;1.90;;;1.40;;
809;SDS011;387;48.772;9.186;2023-09-19T14:15:51;3.23;;;1.50;;
809;SDS011;387;48.772;9.186;2023-09-19T14:18:17;5.83;;;1.90;;
809;SDS011;387;48.772;9.186;2023-09-19T14:20:43;2.20;;;1.60;;
809;SDS011;387;48.772;9.186;2023-09-19T14:23:09;2.07;;;1.47;;
809;SDS011;387;48.772;9.186;2023-09-19T14:25:35;3.70;;;1.77;;
809;SDS011;387;48.772;9.186;2023-09-19T14:28:01;3.60;;;1.70;;
809;SDS011;387;48.772;9.186;2023-09-19T14:30:27;8.20;;;1.40;;
809;SDS011;387;48.772;9.186;2023-09-19T14:32:53;2.40;;;1.50;;
809;SDS011;387;48.772;9.186;2023-09-19T14:35:18;4.03;;;1.90;;
809;SDS011;387;48.772;9.186;2023-09-19T14:37:44;5.87;;;1.80;;
809;SDS011;387;48.772;9.186;2023-09-19T14:40:10;3.40;;;1.67;;
809;SDS011;387;48.772;9.186;2023-09-19T14:42:38;2.83;;;1.63;;
809;SDS011;387;48.772;9.186;2023-09-19T14:45:05;2.97;;;1.50;;
809;SDS011;387;48.772;9.186;2023-09-19T14:47:31;2.20;;;1.53;;
809;SDS011;387;48.772;9.186;2023-09-19T14:49:59;3.60;;;1.70;;
809;SDS011;387;48.772;9.186;2023-09-19T14:52:32;3.43;;;1.50;;
809;SDS011;387;48.772;9.186;2023-09-19T14:54:58;3.43;;;1.80;;
809;SDS011;387;48.772;9.186;2023-09-19T14:57:24;2.60;;;1.73;;
809;SDS011;387;48.772;9.186;2023-09-19T14:59:51;3.67;;;1.73;;
809;SDS011;387;48.772;9.186;2023-09-19T15:02:16;2.97;;;1.80;;
809;SDS011;387;48.772;9.186;2023-09-19T15:04:42;2.63;;;1.50;;
809;SDS011;387;48.772;9.186;2023-09-19T15:07:15;3.90;;;1.70;;
809;SDS011;387;48.772;9.186;2023-09-19T15:09:44;3.33;;;1.70;;
809;SDS011;387;48.772;9.186;2023-09-19T15:12:10;4.40;;;2.20;;
809;SDS011;387;48.772;9.186;2023-09-19T15:14:39;3.40;;;1.90;;
809;SDS011;387;48.772;9.186;2023-09-19T15:17:06;2.10;;;1.47;;
809;SDS011;387;48.772;9.186;2023-09-19T15:19:32;3.83;;;1.80;;
809;SDS011;387;48.772;9.186;2023-09-19T15:21:58;2.60;;;1.60;;
809;SDS011;387;48.772;9.186;2023-09-19T15:24:23;5.07;;;2.10;;
809;SDS011;387;48.772;9.186;2023-09-19T15:26:50;1.40;;;1.10;;
809;SDS011;387;48.772;9.186;2023-09-19T15:29:16;3.00;;;2.00;;
809;SDS011;387;48.772;9.186;2023-09-19T15:31:41;2.30;;;1.50;;
809;SDS011;387;48.772;9.186;2023-09-19T15:34:07;2.03;;;1.47;;
809;SDS011;387;48.772;9.186;2023-09-19T15:36:32;3.50;;;1.70;;
809;SDS011;387;48.772;9.186;2023-09-19T15:41:26;2.27;;;1.40;;
809;SDS011;387;48.772;9.186;2023-09-19T15:43:53;2.37;;;1.60;;
809;SDS011;387;48.772;9.186;2023-09-19T15:46:20;3.47;;;1.70;;
809;SDS011;387;48.772;9.186;2023-09-19T15:48:46;3.40;;;1.60;;
809;SDS011;387;48.772;9.186;2023-09-19T15:51:12;2.90;;;1.50;;
809;SDS011;387;48.772;9.186;2023-09-19T15:53:45;3.00;;;1.90;;
809;SDS011;387;48.772;9.186;2023-09-19T15:56:13;2.20;;;1.60;;
809;SDS011;387;48.772;9.186;2023-09-19T15:58:40;2.47;;;1.67;;
809;SDS011;387;48.772;9.186;2023-09-19T16:01:06;4.00;;;1.70;;
809;SDS011;387;48.772;9.186;2023-09-19T16:03:37;3.13;;;1.60;;
809;SDS011;387;48.772;9.186;2023-09-19T16:06:11;2.47;;;1.57;;
809;SDS011;387;48.772;9.186;2023-09-19T16:08:44;2.17;;;1.57;;
809;SDS011;387;48.772;9.186;2023-09-19T16:11:14;2.40;;;1.73;;
809;SDS011;387;48.772;9.186;2023-09-19T16:13:41;2.47;;;1.60;;
809;SDS011;387;48.772;9.186;2023-09-19T16:16:07;2.77;;;1.63;;
809;SDS011;387;48.772;9.186;2023-09-19T16:18:37;2.20;;;1.63;;
809;SDS011;387;48.772;9.186;2023-09-19T16:21:04;1.87;;;1.30;;
809;SDS011;387;48.772;9.186;2023-09-19T16:23:32;2.17;;;1.53;;
809;SDS011;387;48.772;9.186;2023-09-19T16:26:02;2.30;;;1.30;;
809;SDS011;387;48.772;9.186;2023-09-19T16:28:33;4.00;;;1.60;;
809;SDS011;387;48.772;9.186;2023-09-19T16:31:02;2.87;;;1.37;;
809;SDS011;387;48.772;9.186;2023-09-19T16:33:29;3.70;;;1.60;;
809;SDS011;387;48.772;9.186;2023-09-19T16:35:57;2.83;;;1.80;;
809;SDS011;387;48.772;9.186;2023-09-19T16:38:24;4.23;;;1.97;;
809;SDS011;387;48.772;9.186;2023-09-19T16:40:54;3.30;;;1.60;;
809;SDS011;387;48.772;9.186;2023-09-19T16:43:26;5.63;;;1.73;;
809;SDS011;387;48.772;9.186;2023-09-19T16:45:56;2.20;;;1.60;;
809;SDS011;387;48.772;9.186;2023-09-19T16:48:23;2.80;;;1.67;;
809;SDS011;387;48.772;9.186;2023-09-19T16:50:50;3.87;;;1.70;;
809;SDS011;387;48.772;9.186;2023-09-19T16:53:17;3.03;;;2.00;;
809;SDS011;387;48.772;9.186;2023-09-19T16:55:44;3.87;;;1.50;;
809;SDS011;387;48.772;9.186;2023-09-19T16:58:11;2.80;;;1.50;;
809;SDS011;387;48.772;9.186;2023-09-19T17:00:39;2.20;;;1.50;;
809;SDS011;387;48.772;9.186;2023-09-19T17:03:05;5.40;;;2.00;;
809;SDS011;387;48.772;9.186;2023-09-19T17:05:31;2.30;;;1.60;;
809;SDS011;387;48.772;9.186;2023-09-19T17:07:58;2.80;;;1.80;;
809;SDS011;387;48.772;9.186;2023-09-19T17:10:26;4.17;;;1.53;;
809;SDS011;387;48.772;9.186;2023-09-19T17:12:57;2.57;;;1.73;;